Current Weather

Lewis University

Chicago/Romeoville, Illinois (KLOT)

Report from: Friday, August 19, 2022 12:15 AM CDT
Current time: Friday, August 19, 2022 12:56 AM CDT

Nearby weather
Weather history
Weather forecast

Temperature20.0°C (68.0°F)
Dew point16.0°C (60.8°F)
Winds 4 kts (2.1 m/s, 4.6 mph) South (190°)
Visibility10 mi. (16.1 km)
Clouds Sky clear
Altimeter29.97 in.Hg (1015 mB)
Relative humidity78 %
Density altitude780 ft. (238 m)
Remarks Fully automated report
Automated weather observing station with precipitation discriminator
Flight conditions Visual Meteorological Conditions
Raw dataKLOT 190515Z AUTO 19004KT 10SM CLR 20/16 A2997 RMK AO2
An unhandled exception has occurred. See browser dev tools for details. Reload 🗙